createdAt,value
2023-03-06T00:00:01.252Z,94041.00
2023-03-06T00:04:01.404Z,94037.00
2023-03-06T00:08:01.399Z,94039.00
2023-03-06T00:12:01.541Z,94037.00
2023-03-06T00:16:01.592Z,94039.00
2023-03-06T00:20:01.639Z,94037.00
2023-03-06T00:24:01.702Z,94033.00
2023-03-06T00:28:01.785Z,94033.00
2023-03-06T00:32:01.954Z,94032.00
2023-03-06T00:36:01.959Z,94028.00
2023-03-06T00:40:02.072Z,94026.00
2023-03-06T00:44:02.174Z,94024.00
2023-03-06T00:48:02.297Z,94020.00
2023-03-06T00:52:02.453Z,94016.00
2023-03-06T00:56:02.508Z,94012.00
2023-03-06T01:00:02.617Z,94010.00
2023-03-06T01:04:02.748Z,94008.00
2023-03-06T01:08:02.914Z,94000.00
2023-03-06T01:12:02.949Z,93996.00
2023-03-06T01:16:03.113Z,93986.00
2023-03-06T01:20:03.188Z,93984.00
2023-03-06T01:24:03.311Z,93977.00
2023-03-06T01:28:03.361Z,93975.00
2023-03-06T01:32:03.648Z,93967.00
2023-03-06T01:36:03.583Z,93963.00
2023-03-06T01:40:03.713Z,93961.00
2023-03-06T01:44:03.848Z,93959.00
2023-03-06T01:48:03.911Z,93955.00
2023-03-06T01:52:04.097Z,93947.00
2023-03-06T01:56:04.196Z,93939.00
2023-03-06T02:00:04.366Z,93934.00
2023-03-06T02:04:04.528Z,93928.00
2023-03-06T02:08:04.588Z,93924.00
2023-03-06T02:12:04.690Z,93922.00
2023-03-06T02:16:04.844Z,93916.00
2023-03-06T02:20:04.986Z,93914.00
2023-03-06T02:24:05.143Z,93912.00
2023-03-06T02:28:05.280Z,93908.00
2023-03-06T02:32:05.450Z,93900.00
2023-03-06T02:36:05.593Z,93898.00
2023-03-06T02:40:05.697Z,93890.00
2023-03-06T02:44:05.901Z,93887.00
2023-03-06T02:48:06.038Z,93881.00
2023-03-06T02:52:06.157Z,93881.00
2023-03-06T02:56:06.364Z,93877.00
2023-03-06T03:00:06.519Z,93865.00
2023-03-06T03:04:06.784Z,93853.00
2023-03-06T03:08:06.677Z,93851.00
2023-03-06T03:12:06.679Z,93849.00
2023-03-06T03:16:06.645Z,93845.00
2023-03-06T03:20:06.563Z,93843.00
2023-03-06T03:24:06.514Z,93836.00
2023-03-06T03:28:06.491Z,93834.00
2023-03-06T03:32:06.525Z,93828.00
2023-03-06T03:36:06.420Z,93824.00
2023-03-06T03:40:06.441Z,93820.00
2023-03-06T03:44:06.441Z,93814.00
2023-03-06T03:48:06.376Z,93806.00
2023-03-06T03:52:06.353Z,93804.00
2023-03-06T03:56:06.319Z,93790.00
2023-03-06T04:00:06.309Z,93790.00
2023-03-06T04:04:06.264Z,93787.00
2023-03-06T04:08:06.200Z,93781.00
2023-03-06T04:12:06.189Z,93777.00
2023-03-06T04:16:06.211Z,93777.00
2023-03-06T04:20:06.128Z,93771.00
2023-03-06T04:24:06.096Z,93763.00
2023-03-06T04:28:06.031Z,93759.00
2023-03-06T04:32:06.243Z,93759.00
2023-03-06T04:36:06.173Z,93755.00
2023-03-06T04:40:06.106Z,93747.00
2023-03-06T04:44:06.106Z,93749.00
2023-03-06T04:48:06.045Z,93747.00
2023-03-06T04:52:06.040Z,93749.00
2023-03-06T04:56:06.006Z,93745.00
2023-03-06T05:00:05.998Z,93738.00
2023-03-06T05:04:05.926Z,93738.00
2023-03-06T05:08:05.893Z,93736.00
2023-03-06T05:12:05.868Z,93732.00
2023-03-06T05:16:05.862Z,93728.00
2023-03-06T05:20:05.984Z,93722.00
2023-03-06T05:24:05.940Z,93726.00
2023-03-06T05:28:05.923Z,93724.00
2023-03-06T05:32:06.005Z,93724.00
2023-03-06T05:36:05.875Z,93726.00
2023-03-06T05:40:05.778Z,93726.00
2023-03-06T05:44:05.831Z,93726.00
2023-03-06T05:48:05.739Z,93728.00
2023-03-06T05:52:05.877Z,93728.00
2023-03-06T05:56:05.832Z,93724.00
2023-03-06T06:00:05.824Z,93728.00
2023-03-06T06:04:05.741Z,93718.00
2023-03-06T06:08:05.737Z,93722.00
2023-03-06T06:12:05.698Z,93722.00
2023-03-06T06:16:05.712Z,93730.00
2023-03-06T06:20:05.624Z,93728.00
2023-03-06T06:24:05.581Z,93732.00
2023-03-06T06:28:05.537Z,93726.00
2023-03-06T06:32:05.579Z,93734.00
2023-03-06T06:36:05.863Z,93728.00
2023-03-06T06:40:05.491Z,93726.00
2023-03-06T06:44:07.875Z,93726.00
2023-03-06T06:48:05.429Z,93738.00
2023-03-06T06:52:05.400Z,93736.00
2023-03-06T06:56:05.291Z,93738.00
2023-03-06T07:00:05.310Z,93734.00
2023-03-06T07:04:05.275Z,93734.00
2023-03-06T07:08:05.190Z,93736.00
2023-03-06T07:12:05.199Z,93734.00
2023-03-06T07:16:05.248Z,93728.00
2023-03-06T07:20:05.094Z,93728.00
2023-03-06T07:24:05.074Z,93730.00
2023-03-06T07:28:05.201Z,93732.00
2023-03-06T07:32:05.030Z,93738.00
2023-03-06T07:36:04.946Z,93743.00
2023-03-06T07:40:04.935Z,93741.00
2023-03-06T07:44:04.859Z,93745.00
2023-03-06T07:48:05.662Z,93747.00
2023-03-06T07:52:04.804Z,93749.00
2023-03-06T07:56:04.781Z,93753.00
2023-03-06T08:00:04.740Z,93751.00
2023-03-06T08:04:04.969Z,93751.00
2023-03-06T08:08:05.104Z,93755.00
2023-03-06T08:12:05.208Z,93751.00
2023-03-06T08:16:05.434Z,93743.00
2023-03-06T08:20:05.382Z,93747.00
2023-03-06T08:24:06.740Z,93745.00
2023-03-06T08:28:05.329Z,93745.00
2023-03-06T08:32:05.377Z,93747.00
2023-03-06T08:36:05.476Z,93738.00
2023-03-06T08:40:05.692Z,93741.00
2023-03-06T08:44:05.668Z,93747.00
2023-03-06T08:48:05.588Z,93747.00
2023-03-06T08:52:05.590Z,93753.00
2023-03-06T08:56:05.514Z,93749.00
2023-03-06T09:00:05.505Z,93747.00
2023-03-06T09:04:05.462Z,93749.00
2023-03-06T09:08:05.450Z,93747.00
2023-03-06T09:12:05.388Z,93745.00
2023-03-06T09:16:05.379Z,93751.00
2023-03-06T09:20:05.343Z,93741.00
2023-03-06T09:24:05.263Z,93738.00
2023-03-06T09:28:11.315Z,93732.00
2023-03-06T09:35:38.593Z,93732.00
2023-03-06T09:39:38.558Z,93732.00
2023-03-06T09:43:38.533Z,93730.00
2023-03-06T09:47:38.154Z,93726.00
2023-03-06T09:51:38.641Z,93730.00
2023-03-06T09:55:38.103Z,93736.00
2023-03-06T09:59:38.050Z,93726.00
2023-03-06T10:03:38.016Z,93730.00
2023-03-06T10:07:38.013Z,93720.00
2023-03-06T10:11:38.038Z,93710.00
2023-03-06T10:15:38.590Z,93714.00
2023-03-06T10:19:38.070Z,93708.00
2023-03-06T10:23:38.023Z,93698.00
2023-03-06T10:27:37.959Z,93696.00
2023-03-06T10:31:38.065Z,93693.00
2023-03-06T10:35:38.112Z,93693.00
2023-03-06T10:39:37.898Z,93683.00
2023-03-06T10:43:38.050Z,93679.00
2023-03-06T10:47:37.819Z,93679.00
2023-03-06T10:51:37.772Z,93657.00
2023-03-06T10:55:37.746Z,93653.00
2023-03-06T10:59:37.682Z,93647.00
2023-03-06T11:03:38.057Z,93634.00
2023-03-06T11:07:37.613Z,93636.00
2023-03-06T11:11:45.282Z,93622.00
2023-03-06T11:15:37.647Z,93620.00
2023-03-06T11:19:37.549Z,93618.00
2023-03-06T11:23:37.616Z,93591.00
2023-03-06T11:27:37.638Z,93589.00
2023-03-06T11:31:37.475Z,93575.00
2023-03-06T11:35:37.411Z,93563.00
2023-03-06T11:39:37.355Z,93565.00
2023-03-06T11:43:37.600Z,93555.00
2023-03-06T11:47:37.264Z,93547.00
2023-03-06T11:51:37.249Z,93544.00
2023-03-06T11:55:37.198Z,93536.00
2023-03-06T11:59:37.195Z,93522.00
2023-03-06T12:03:37.111Z,93514.00
2023-03-06T12:07:37.094Z,93522.00
2023-03-06T12:11:37.070Z,93512.00
2023-03-06T12:15:37.631Z,93500.00
2023-03-06T12:19:37.229Z,93500.00
2023-03-06T12:23:39.101Z,93499.00
2023-03-06T12:27:37.323Z,93495.00
2023-03-06T12:31:37.473Z,93491.00
2023-03-06T12:35:37.551Z,93485.00
2023-03-06T12:39:37.716Z,93483.00
2023-03-06T12:43:40.059Z,93483.00
2023-03-06T12:47:38.068Z,93471.00
2023-03-06T12:51:38.289Z,93475.00
2023-03-06T12:55:38.415Z,93467.00
2023-03-06T12:59:38.735Z,93463.00
2023-03-06T13:03:38.900Z,93461.00
2023-03-06T13:07:38.961Z,93452.00
2023-03-06T13:11:39.057Z,93444.00
2023-03-06T13:15:39.090Z,93446.00
2023-03-06T13:19:39.057Z,93448.00
2023-03-06T13:23:39.267Z,93446.00
2023-03-06T13:27:39.466Z,93438.00
2023-03-06T13:31:39.576Z,93440.00
2023-03-06T13:35:39.916Z,93434.00
2023-03-06T13:39:39.871Z,93436.00
2023-03-06T13:43:39.795Z,93436.00
2023-03-06T13:48:05.776Z,93424.00
2023-03-06T13:51:40.757Z,93428.00
2023-03-06T13:55:39.731Z,93430.00
2023-03-06T13:59:39.654Z,93430.00
2023-03-06T14:03:39.674Z,93432.00
2023-03-06T14:07:39.579Z,93438.00
2023-03-06T14:11:39.735Z,93430.00
2023-03-06T14:15:39.649Z,93430.00
2023-03-06T14:19:39.606Z,93436.00
2023-03-06T14:23:39.612Z,93434.00
2023-03-06T14:27:39.560Z,93436.00
2023-03-06T14:31:39.539Z,93442.00
2023-03-06T14:35:39.520Z,93446.00
2023-03-06T14:39:39.456Z,93453.00
2023-03-06T14:43:39.659Z,93453.00
2023-03-06T14:47:39.689Z,93453.00
2023-03-06T14:51:39.314Z,93453.00
2023-03-06T14:55:39.348Z,93455.00
2023-03-06T14:59:39.278Z,93457.00
2023-03-06T15:03:39.388Z,93457.00
2023-03-06T15:07:39.321Z,93463.00
2023-03-06T15:11:39.655Z,93469.00
2023-03-06T15:15:39.277Z,93465.00
2023-03-06T15:19:39.222Z,93463.00
2023-03-06T15:23:39.188Z,93471.00
2023-03-06T15:27:39.158Z,93469.00
2023-03-06T15:31:39.236Z,93479.00
2023-03-06T15:35:39.065Z,93481.00
2023-03-06T15:39:39.088Z,93485.00
2023-03-06T15:43:39.266Z,93485.00
2023-03-06T15:47:39.188Z,93479.00
2023-03-06T15:51:39.188Z,93481.00
2023-03-06T15:55:39.155Z,93489.00
2023-03-06T15:59:39.137Z,93493.00
2023-03-06T16:03:39.067Z,93499.00
2023-03-06T16:07:39.056Z,93497.00
2023-03-06T16:11:43.923Z,93495.00
2023-03-06T16:15:39.966Z,93499.00
2023-03-06T16:19:38.958Z,93506.00
2023-03-06T16:23:38.879Z,93508.00
2023-03-06T16:27:38.865Z,93508.00
2023-03-06T16:31:38.842Z,93514.00
2023-03-06T16:35:38.826Z,93514.00
2023-03-06T16:39:38.794Z,93516.00
2023-03-06T16:43:38.696Z,93508.00
2023-03-06T16:47:38.684Z,93516.00
2023-03-06T16:51:38.709Z,93532.00
2023-03-06T16:55:38.637Z,93538.00
2023-03-06T16:59:38.655Z,93536.00
2023-03-06T17:03:38.653Z,93544.00
2023-03-06T17:07:38.607Z,93546.00
2023-03-06T17:11:38.651Z,93555.00
2023-03-06T17:15:38.552Z,93557.00
2023-03-06T17:19:38.490Z,93565.00
2023-03-06T17:23:38.580Z,93569.00
2023-03-06T17:27:38.669Z,93575.00
2023-03-06T17:31:38.844Z,93577.00
2023-03-06T17:35:39.048Z,93583.00
2023-03-06T17:39:39.141Z,93587.00
2023-03-06T17:43:39.336Z,93591.00
2023-03-06T17:47:39.464Z,93599.00
2023-03-06T17:51:39.622Z,93608.00
2023-03-06T17:55:39.811Z,93610.00
2023-03-06T17:59:39.980Z,93612.00
2023-03-06T18:03:40.170Z,93614.00
2023-03-06T18:07:40.366Z,93622.00
2023-03-06T18:11:40.530Z,93624.00
2023-03-06T18:15:40.783Z,93628.00
2023-03-06T18:19:40.945Z,93630.00
2023-03-06T18:23:41.176Z,93632.00
2023-03-06T18:27:41.367Z,93632.00
2023-03-06T18:31:41.717Z,93628.00
2023-03-06T18:35:41.585Z,93632.00
2023-03-06T18:39:41.551Z,93640.00
2023-03-06T18:43:41.472Z,93647.00
2023-03-06T18:47:41.451Z,93646.00
2023-03-06T18:51:41.776Z,93647.00
2023-03-06T18:55:41.364Z,93646.00
2023-03-06T18:59:41.308Z,93651.00
2023-03-06T19:03:41.315Z,93655.00
2023-03-06T19:07:41.237Z,93661.00
2023-03-06T19:11:41.367Z,93665.00
2023-03-06T19:15:41.276Z,93669.00
2023-03-06T19:19:41.235Z,93675.00
2023-03-06T19:23:41.192Z,93677.00
2023-03-06T19:27:41.159Z,93675.00
2023-03-06T19:31:41.156Z,93675.00
2023-03-06T19:35:41.204Z,93677.00
2023-03-06T19:39:41.045Z,93677.00
2023-03-06T19:43:41.079Z,93685.00
2023-03-06T19:47:41.010Z,93689.00
2023-03-06T19:51:41.107Z,93689.00
2023-03-06T19:55:40.946Z,93693.00
2023-03-06T19:59:41.023Z,93696.00
2023-03-06T20:03:40.874Z,93694.00
2023-03-06T20:07:40.833Z,93698.00
2023-03-06T20:11:40.769Z,93698.00
2023-03-06T20:15:40.831Z,93698.00
2023-03-06T20:19:40.746Z,93696.00
2023-03-06T20:23:40.725Z,93702.00
2023-03-06T20:27:40.769Z,93706.00
2023-03-06T20:31:40.674Z,93710.00
2023-03-06T20:35:40.718Z,93712.00
2023-03-06T20:39:40.683Z,93720.00
2023-03-06T20:43:40.686Z,93718.00
2023-03-06T20:47:40.679Z,93716.00
2023-03-06T20:51:40.642Z,93724.00
2023-03-06T20:55:40.653Z,93726.00
2023-03-06T20:59:40.661Z,93726.00
2023-03-06T21:03:40.690Z,93728.00
2023-03-06T21:07:40.761Z,93730.00
2023-03-06T21:11:40.786Z,93728.00
2023-03-06T21:15:40.818Z,93722.00
2023-03-06T21:19:40.831Z,93722.00
2023-03-06T21:23:40.866Z,93712.00
2023-03-06T21:27:40.894Z,93714.00
2023-03-06T21:31:40.975Z,93716.00
2023-03-06T21:35:40.963Z,93716.00
2023-03-06T21:39:40.986Z,93710.00
2023-03-06T21:43:40.999Z,93712.00
2023-03-06T21:47:41.122Z,93708.00
2023-03-06T21:51:41.131Z,93706.00
2023-03-06T21:55:41.204Z,93704.00
2023-03-06T21:59:41.388Z,93700.00
2023-03-06T22:03:41.413Z,93693.00
2023-03-06T22:07:41.434Z,93694.00
2023-03-06T22:11:41.556Z,93693.00
2023-03-06T22:15:41.595Z,93687.00
2023-03-06T22:19:41.655Z,93689.00
2023-03-06T22:23:41.754Z,93689.00
2023-03-06T22:27:41.813Z,93687.00
2023-03-06T22:31:42.102Z,93685.00
2023-03-06T22:35:42.037Z,93681.00
2023-03-06T22:39:42.044Z,93683.00
2023-03-06T22:43:42.112Z,93687.00
2023-03-06T22:47:42.222Z,93681.00
2023-03-06T22:51:42.353Z,93677.00
2023-03-06T22:55:42.397Z,93677.00
2023-03-06T22:59:42.502Z,93677.00
2023-03-06T23:03:42.570Z,93673.00
2023-03-06T23:07:42.672Z,93673.00
2023-03-06T23:11:42.730Z,93675.00
2023-03-06T23:15:42.836Z,93669.00
2023-03-06T23:19:42.892Z,93663.00
2023-03-06T23:23:43.380Z,93665.00
2023-03-06T23:27:43.128Z,93669.00
2023-03-06T23:31:43.194Z,93665.00
2023-03-06T23:35:43.259Z,93667.00
2023-03-06T23:39:43.352Z,93661.00
2023-03-06T23:43:43.449Z,93657.00
2023-03-06T23:47:43.550Z,93659.00
2023-03-06T23:51:43.682Z,93655.00
2023-03-06T23:55:43.742Z,93659.00
2023-03-06T23:59:43.902Z,93659.00
